Date,TemperatureHighF,TemperatureAvgF,TemperatureLowF,DewpointHighF,DewpointAvgF,DewpointLowF,HumidityHigh,HumidityAvg,HumidityLow,PressureMaxIn,PressureMinIn,WindSpeedMaxMPH,WindSpeedAvgMPH,GustSpeedMaxMPH,PrecipitationSumIn
2017-1-1,27.0,24.2,21.4,24.1,21.4,18.7,95,92,86,30.43,30.19,11,2,14,0.00
2017-1-2,39.4,29.5,19.9,32.9,23.8,17.8,94,88,72,30.20,30.03,23,3,23,0.00
2017-1-3,36.9,32.0,27.1,28.9,26.5,23.9,90,79,69,30.27,30.04,30,7,30,0.00
2017-1-4,37.8,35.6,33.4,32.2,29.3,25.0,85,78,67,30.04,29.71,39,11,39,0.01
2017-1-5,34.9,27.8,20.7,30.2,20.0,12.4,85,71,52,30.48,29.78,26,8,26,0.00
2017-1-6,24.6,19.4,14.2,13.6,11.7,9.0,82,71,57,30.71,30.48,30,10,30,0.00
2017-1-7,23.9,16.5,9.0,16.5,9.3,4.6,91,72,46,30.71,30.43,18,5,18,0.00
2017-1-8,22.5,20.3,18.1,19.2,16.8,13.5,93,87,78,30.48,30.37,11,4,11,0.00
2017-1-9,26.4,22.8,19.2,22.3,18.8,13.8,87,83,79,30.45,30.28,14,3,14,0.00
2017-1-10,23.5,18.0,12.6,18.9,12.5,6.3,87,78,67,30.28,30.14,22,8,22,0.00
2017-1-11,23.4,17.0,10.6,20.8,11.3,5.4,93,78,70,30.25,29.83,18,4,18,0.00
2017-1-12,43.0,32.2,21.4,35.4,30.8,18.9,96,84,71,29.94,29.65,19,4,19,0.10
2017-1-13,42.1,36.7,31.3,34.7,29.5,26.6,93,79,61,29.65,29.42,24,6,28,0.00
2017-1-14,36.0,30.6,25.2,32.0,27.7,20.5,87,80,73,29.94,29.59,24,5,25,0.02
2017-1-15,36.1,31.1,26.2,29.3,26.4,22.3,88,82,71,30.17,29.94,23,5,23,0.00
2017-1-16,32.4,25.2,18.3,26.6,21.2,15.8,91,87,76,30.35,30.17,10,3,10,0.00
2017-1-17,30.4,26.8,23.2,23.5,21.3,19.2,91,81,75,30.60,30.35,14,6,15,0.00
2017-1-18,29.7,23.0,16.5,22.1,18.9,13.1,89,80,71,30.73,30.59,13,4,13,0.00
2017-1-19,27.0,19.0,11.1,19.9,14.5,8.6,92,86,73,30.77,30.70,9,2,9,0.00
2017-1-20,26.1,16.5,7.0,19.6,13.0,4.3,93,86,76,30.76,30.64,11,2,11,0.00
2017-1-21,29.5,20.1,10.8,21.9,16.0,8.2,93,85,72,30.65,30.55,12,2,12,0.00
2017-1-22,32.2,24.7,17.1,23.7,19.3,14.0,89,79,68,30.59,30.43,27,8,27,0.00
2017-1-23,25.3,23.2,21.2,21.4,19.2,18.0,91,87,74,30.43,30.35,27,8,28,0.00
2017-1-24,24.3,22.1,19.9,19.8,18.2,16.9,92,86,80,30.48,30.34,14,4,14,0.00
2017-1-25,29.7,26.6,23.7,25.0,22.6,19.4,88,85,82,30.53,30.46,16,5,16,0.00
2017-1-26,35.1,30.2,25.5,25.5,23.5,21.0,89,81,65,30.55,30.47,25,7,25,0.00
2017-1-27,27.3,24.4,21.7,22.6,20.7,18.5,91,87,82,30.47,30.38,22,10,23,0.00
2017-1-28,22.8,21.7,20.8,20.5,19.4,18.1,93,90,87,30.40,30.33,23,8,23,0.00
2017-1-29,22.5,21.4,20.3,21.0,19.4,17.6,94,92,89,30.44,30.39,11,4,12,0.00
2017-1-30,21.0,19.0,17.1,19.6,17.2,14.7,94,92,90,30.41,30.26,21,9,23,0.00
2017-1-31,24.3,20.8,17.2,22.1,19.1,14.9,95,92,90,30.26,30.17,25,9,25,0.00
2017-2-1,30.0,26.7,23.4,28.8,25.4,21.2,96,93,90,30.27,30.18,11,1,12,0.00
2017-2-2,31.3,29.6,28.0,29.3,27.7,25.9,96,92,92,30.19,30.00,14,3,14,0.08
2017-2-3,33.4,32.1,30.7,31.6,30.4,28.9,98,94,93,30.00,29.81,12,1,12,0.20
2017-2-4,40.1,35.7,31.5,37.2,32.0,29.7,94,92,84,29.85,29.67,17,5,17,0.17
2017-2-5,50.9,41.6,32.5,37.0,33.3,30.6,93,80,54,29.76,29.68,11,4,11,0.00
2017-2-6,37.0,35.2,33.3,34.5,32.9,30.7,92,91,87,30.10,29.70,13,4,13,0.48
2017-2-7,37.8,31.1,24.4,31.5,27.6,21.6,91,83,72,30.19,30.09,16,5,17,0.00
2017-2-8,29.1,26.7,24.3,25.5,22.7,20.5,90,82,76,30.45,30.18,10,3,14,0.00
2017-2-9,31.8,28.2,24.6,27.5,23.7,20.8,88,83,79,30.48,30.41,13,3,13,0.00
2017-2-10,36.0,33.5,30.9,30.2,27.6,25.5,94,82,70,30.41,30.30,30,12,31,0.00
2017-2-11,34.9,32.2,29.7,29.7,27.8,26.1,88,84,80,30.35,30.28,29,11,29,0.00
2017-2-12,36.3,33.7,31.1,28.6,27.7,26.8,86,80,72,30.56,30.34,23,8,24,0.00
2017-2-13,37.9,32.5,27.0,29.1,26.8,23.5,88,79,68,30.64,30.56,16,6,18,0.00
2017-2-14,40.8,33.4,26.2,33.1,27.6,22.1,91,82,71,30.65,30.58,18,4,18,0.00
2017-2-15,48.0,35.5,23.0,33.6,26.6,20.8,92,81,51,30.68,30.59,13,2,13,0.01
2017-2-16,37.2,31.0,25.0,33.1,27.8,22.5,97,92,84,30.63,30.43,11,2,11,0.00
2017-2-17,37.8,32.5,27.3,36.0,30.0,25.3,97,92,89,30.43,30.24,15,4,15,0.03
2017-2-18,42.6,37.0,31.5,39.0,34.7,28.9,94,90,83,30.37,30.26,13,4,13,0.14
2017-2-19,45.3,36.2,27.3,39.9,30.5,25.3,92,90,79,30.37,30.21,7,1,7,0.01
2017-2-20,46.9,37.8,28.8,40.5,33.9,26.8,93,86,74,30.24,29.99,20,5,23,0.06
2017-2-21,50.2,45.8,41.5,45.9,42.0,38.3,91,88,84,30.00,29.83,26,7,26,0.36
2017-2-22,57.7,46.0,34.3,48.9,41.0,31.6,93,80,61,30.01,29.72,25,6,25,0.05
2017-2-23,63.0,50.0,36.9,45.0,40.7,33.3,89,68,34,29.73,29.45,24,5,26,0.00
2017-2-24,57.7,45.9,34.2,38.7,32.2,26.2,88,58,41,30.09,29.43,33,9,33,0.00
2017-2-25,48.7,38.0,27.3,29.8,26.8,23.9,88,69,44,30.27,30.09,20,4,20,0.00
2017-2-26,49.8,40.5,31.3,32.9,29.2,23.0,84,67,46,30.22,30.02,14,3,14,0.00
2017-2-27,55.2,40.9,26.6,40.1,32.8,23.7,90,74,50,30.04,29.62,19,5,26,0.00
2017-2-28,53.1,42.4,31.8,41.2,35.3,28.4,89,75,61,29.63,29.42,21,5,26,0.02
2017-3-1,52.2,42.0,32.0,39.4,33.6,26.6,88,71,48,29.88,29.56,29,6,29,0.00
2017-3-2,54.9,43.2,31.5,45.5,34.2,26.2,88,69,37,30.10,29.77,26,4,26,0.03
2017-3-3,57.4,44.0,31.1,40.5,33.5,25.9,83,66,40,30.17,29.78,24,6,26,0.00
2017-3-4,67.8,52.1,36.3,44.6,39.6,32.9,90,65,33,29.78,29.46,34,7,34,0.00
2017-3-5,55.9,48.2,40.5,41.7,38.7,35.8,86,66,48,29.76,29.50,20,5,20,0.01
2017-3-6,53.4,45.5,37.8,37.2,34.4,31.5,87,70,45,29.69,29.57,19,5,21,0.00
2017-3-7,48.7,41.6,34.5,39.6,35.7,31.1,89,81,64,30.13,29.60,22,5,22,0.02
2017-3-8,53.4,42.3,31.6,38.1,33.0,28.6,89,76,52,30.30,30.13,15,4,15,0.00
2017-3-9,57.0,45.6,34.2,46.8,40.6,30.7,90,81,62,30.15,29.97,16,4,16,0.11
2017-3-10,45.7,40.3,35.2,42.3,37.4,31.3,90,82,75,30.29,29.95,27,8,27,0.07
2017-3-11,51.8,43.4,35.1,37.9,33.1,30.7,86,69,47,30.30,30.17,13,6,22,0.00
2017-3-12,47.8,39.2,30.7,34.2,30.9,26.8,86,71,49,30.18,30.08,15,4,16,0.00
2017-3-13,53.1,40.9,28.9,36.0,31.3,25.7,89,72,47,30.37,30.17,14,4,14,0.00
2017-3-14,56.1,44.2,32.4,38.1,34.6,28.8,88,71,46,30.43,30.36,22,6,22,0.00
2017-3-15,54.1,46.4,38.7,43.9,39.1,33.3,86,75,66,30.41,30.30,22,5,22,0.00
2017-3-16,61.9,48.7,35.4,40.5,34.4,27.7,88,64,28,30.38,30.12,24,6,28,0.00
2017-3-17,67.5,49.4,31.5,47.3,37.9,28.4,95,69,36,30.15,29.75,32,4,37,0.28
2017-3-18,49.8,46.8,43.7,46.2,43.2,39.9,93,85,78,29.83,29.63,29,7,31,0.46
2017-3-19,52.7,47.1,41.4,49.3,42.1,36.9,93,87,84,29.90,29.72,13,3,14,0.17
2017-3-20,60.3,51.4,42.6,49.5,46.2,39.4,89,76,57,29.87,29.75,24,4,24,0.01
2017-3-21,64.4,51.5,39.0,50.0,44.1,36.3,91,76,54,29.87,29.77,16,3,16,0.00
2017-3-22,52.0,46.6,41.2,46.2,42.3,37.6,88,84,75,30.03,29.82,17,4,19,0.00
2017-3-23,48.0,44.0,39.9,43.2,40.4,37.0,95,88,81,30.14,29.98,10,3,12,0.00
2017-3-24,55.0,46.4,37.8,44.8,41.3,33.1,96,83,65,30.44,30.14,18,6,19,0.00
2017-3-25,57.4,45.3,33.6,39.6,33.4,28.6,90,66,35,30.43,30.16,11,4,12,0.00
2017-3-26,52.9,42.7,33.1,35.4,30.2,21.0,83,61,38,30.35,30.16,21,5,21,0.00
2017-3-27,58.6,44.8,30.9,37.6,30.3,22.3,84,64,26,30.39,30.25,10,2,10,0.00
2017-3-28,70.9,49.7,28.9,41.4,33.7,20.1,89,55,28,30.29,30.12,12,2,12,0.00
2017-3-29,71.4,56.8,42.4,46.2,41.2,36.1,80,57,35,30.25,30.11,22,7,23,0.00
2017-3-30,68.0,56.8,45.7,48.4,44.2,41.0,85,67,45,30.33,30.24,13,3,13,0.00
2017-3-31,70.0,56.7,43.5,49.3,44.6,39.6,88,66,43,30.32,30.01,27,7,27,0.00
2017-4-1,73.0,61.0,48.9,45.9,43.7,40.6,73,55,36,30.01,29.78,33,10,33,0.00
2017-4-2,74.1,61.2,48.6,48.6,43.0,38.1,76,53,28,30.04,29.85,13,3,14,0.00
2017-4-3,71.8,58.6,45.7,52.0,45.4,39.9,82,63,43,30.14,30.03,19,5,19,0.00
2017-4-4,63.9,54.7,45.5,48.9,44.3,41.2,86,70,53,30.14,30.06,19,7,20,0.02
2017-4-5,56.7,51.7,46.9,46.9,44.8,43.5,89,79,66,30.13,30.00,22,8,23,0.05
2017-4-6,52.2,47.2,42.3,45.1,35.5,29.5,87,66,44,30.17,29.99,33,8,33,0.14
2017-4-7,48.4,44.8,41.5,44.1,39.8,33.3,94,82,63,30.16,30.04,22,5,24,0.48
2017-4-8,59.0,53.4,47.8,49.3,45.2,43.2,87,76,59,30.26,30.10,20,5,20,0.00
2017-4-9,64.6,50.4,36.3,49.6,42.9,33.4,94,72,42,30.33,30.22,11,2,11,0.00
2017-4-10,70.3,54.1,38.1,51.6,45.2,33.4,90,66,47,30.23,29.91,15,3,16,0.00
2017-4-11,61.3,53.9,46.6,48.6,38.2,32.4,85,61,43,30.25,29.91,27,7,27,0.06
2017-4-12,63.0,51.7,40.3,43.3,38.0,31.8,82,60,40,30.25,29.86,19,2,19,0.00
2017-4-13,59.4,53.1,46.8,50.4,44.0,39.2,88,74,61,29.95,29.78,23,3,25,0.06
2017-4-14,60.1,50.4,40.8,44.4,40.2,37.0,89,69,44,30.00,29.93,15,2,15,0.00
2017-4-15,60.8,50.8,40.8,46.9,42.8,36.7,87,73,50,30.01,29.84,12,2,12,0.02
2017-4-16,55.4,49.3,43.2,47.8,37.6,28.9,86,65,40,30.05,29.88,24,6,25,0.01
2017-4-17,52.0,46.0,40.5,44.8,39.5,37.0,95,83,63,30.06,29.85,17,4,18,0.45
2017-4-18,53.1,44.4,35.8,38.7,35.9,31.8,94,82,52,30.12,29.91,22,6,22,0.13
2017-4-19,37.2,34.7,32.2,32.9,31.3,28.9,96,87,73,30.32,30.09,25,10,27,0.31
2017-4-20,41.0,37.5,34.0,30.2,26.8,24.1,76,66,55,30.52,30.30,31,8,31,0.06
2017-4-21,54.7,43.7,32.7,33.3,28.6,23.5,80,58,31,30.53,30.23,23,6,24,0.00
2017-4-22,54.7,47.5,40.3,43.3,36.3,29.5,96,68,53,30.23,29.97,24,5,24,0.13
2017-4-23,53.4,45.5,37.8,39.6,33.5,28.4,88,67,42,30.22,30.07,26,6,27,0.01
2017-4-24,59.2,45.0,30.9,40.1,34.1,23.7,86,62,43,30.22,29.85,19,4,20,0.00
2017-4-25,70.9,56.6,42.3,50.4,44.9,39.4,91,69,43,29.86,29.62,19,4,19,0.00
2017-4-26,60.6,52.9,45.3,49.1,45.0,40.5,90,78,64,29.87,29.67,18,4,20,0.00
2017-4-27,45.5,42.9,40.5,41.4,39.6,37.8,94,88,83,29.94,29.83,14,4,14,0.13
2017-4-28,42.6,40.3,38.3,39.2,37.5,35.6,91,88,85,29.98,29.78,17,5,18,0.12
2017-4-29,56.5,44.9,33.6,43.5,37.8,30.7,91,75,52,30.10,29.98,18,4,19,0.00
2017-4-30,60.6,46.4,32.2,45.1,37.3,29.3,91,69,40,30.13,29.96,20,5,21,0.00
2017-5-1,62.8,54.8,46.9,44.8,42.0,39.0,79,65,49,29.97,29.83,30,10,30,0.00
2017-5-2,64.2,52.6,41.2,46.9,41.8,37.4,89,72,45,30.10,29.92,28,6,29,0.13
2017-5-3,59.4,49.1,38.7,51.6,45.3,35.8,91,83,65,30.10,30.00,8,2,8,0.30
2017-5-4,60.3,50.6,41.2,54.1,47.4,38.8,92,87,77,30.01,29.88,15,3,16,0.08
2017-5-5,65.7,56.8,48.4,53.8,49.2,45.0,90,81,64,30.04,29.91,16,5,16,0.01
2017-5-6,70.3,58.2,46.2,56.8,49.8,43.2,90,74,48,30.04,29.70,20,5,20,0.00
2017-5-7,66.7,59.8,52.9,57.2,51.8,49.3,90,83,66,29.83,29.68,24,5,24,0.35
2017-5-8,68.7,57.0,45.3,52.5,47.5,42.6,94,76,43,29.91,29.74,20,6,20,0.11
2017-5-9,50.2,41.9,33.8,46.6,37.8,29.3,94,77,49,30.04,29.90,18,6,20,0.13
2017-5-10,59.4,43.7,28.0,41.7,34.7,25.5,91,67,47,30.04,29.76,18,4,18,0.01
2017-5-11,69.3,52.5,35.6,52.9,43.8,32.5,91,75,52,29.77,29.52,18,3,18,0.00
2017-5-12,74.5,61.5,48.6,56.1,51.9,44.2,88,69,48,29.67,29.51,20,3,20,0.00
2017-5-13,68.9,60.6,52.3,58.3,54.3,50.0,93,80,65,29.96,29.67,29,6,29,0.16
2017-5-14,75.6,64.1,52.5,61.5,55.2,50.5,94,79,53,30.19,29.96,14,4,14,0.00
2017-5-15,69.4,61.8,54.1,60.4,55.7,52.2,95,84,68,30.36,30.19,16,5,17,0.32
2017-5-16,73.8,62.6,51.4,57.9,53.3,48.0,96,74,43,30.40,30.26,14,5,16,0.32
2017-5-17,73.8,63.0,52.2,55.0,50.4,46.2,86,64,39,30.33,30.11,14,2,14,0.00
2017-5-18,78.8,63.6,48.4,53.2,49.5,44.1,87,58,36,30.11,29.86,27,7,27,0.00
2017-5-19,79.3,68.1,56.8,55.6,52.0,48.2,76,56,36,29.88,29.71,32,9,34,0.00
2017-5-20,59.5,57.0,54.5,51.3,48.2,46.4,87,72,67,30.12,29.87,36,9,36,0.03
2017-5-21,67.8,60.1,52.3,55.9,51.9,49.5,91,81,62,30.21,30.12,23,7,23,0.62
2017-5-22,76.5,63.2,50.2,57.7,52.7,48.0,94,71,49,30.17,29.97,15,4,15,0.00
2017-5-23,79.0,67.8,56.7,60.3,55.7,50.5,90,71,43,30.01,29.89,11,2,11,0.00
2017-5-24,70.0,61.8,54.1,59.7,51.6,42.4,93,71,43,30.08,29.94,20,6,23,0.10
2017-5-25,64.2,55.2,46.2,52.0,47.4,42.3,88,77,59,30.14,30.08,16,4,16,0.00
2017-5-26,74.5,60.6,46.8,55.0,49.8,42.8,88,67,45,30.14,30.01,21,4,21,0.00
2017-5-27,77.4,64.4,51.4,58.1,51.7,43.5,88,62,40,30.19,30.08,13,2,15,0.00
2017-5-28,76.1,64.6,53.1,52.7,49.4,47.1,83,57,37,30.22,30.09,18,4,18,0.00
2017-5-29,86.5,71.2,55.8,59.0,54.1,48.6,79,58,28,30.09,29.88,9,2,9,0.00
2017-5-30,91.8,77.8,64.0,66.2,60.1,55.8,89,58,36,29.91,29.78,30,2,30,0.62
2017-5-31,79.9,71.3,62.8,68.0,63.3,58.6,93,82,63,30.04,29.88,19,4,19,0.02
2017-6-1,79.5,67.1,54.7,60.6,56.7,49.8,88,68,43,30.10,30.01,11,2,12,0.02
2017-6-2,85.1,68.7,52.5,59.9,53.0,47.1,89,58,36,30.08,29.90,16,2,16,0.00
2017-6-3,87.1,71.9,56.7,62.1,57.0,51.4,89,64,31,29.99,29.82,15,2,15,0.00
2017-6-4,79.0,68.8,59.0,64.9,60.8,56.1,94,79,58,29.97,29.73,27,5,27,0.04
2017-6-5,75.7,64.6,53.4,58.5,54.5,50.7,95,71,45,30.01,29.80,14,3,14,0.01
2017-6-6,81.9,68.8,55.6,64.0,58.5,49.6,93,72,49,29.83,29.53,26,6,28,0.09
2017-6-7,68.4,60.3,52.3,51.4,48.3,44.8,84,67,46,30.15,29.83,22,4,24,0.00
2017-6-8,77.7,62.2,46.8,49.6,46.5,43.3,91,60,33,30.20,30.03,13,3,13,0.00
2017-6-9,79.0,66.4,54.0,52.7,49.7,46.2,76,54,36,30.06,29.86,23,6,24,0.00
2017-6-10,76.5,64.8,53.1,60.6,53.8,46.6,95,67,38,30.15,29.90,23,6,24,0.28
2017-6-11,80.1,64.7,49.5,56.7,51.6,46.6,91,62,37,30.18,29.98,13,2,13,0.00
2017-6-12,88.3,74.0,59.7,65.3,57.9,50.2,79,60,40,30.00,29.78,20,3,21,0.00
2017-6-13,83.7,72.1,60.4,55.6,52.4,48.2,71,53,35,30.00,29.85,18,4,18,0.00
2017-6-14,79.2,66.5,54.0,54.1,50.5,48.0,81,59,36,30.07,29.94,15,4,15,0.00
2017-6-15,84.6,65.9,47.7,57.0,49.2,43.9,90,56,26,30.07,29.91,11,2,12,0.00
2017-6-16,81.1,69.8,58.5,65.8,57.5,49.6,97,69,34,30.03,29.82,20,5,23,0.41
2017-6-17,67.5,61.1,54.7,54.7,50.6,44.6,94,75,49,30.17,30.03,25,6,25,0.06
2017-6-18,76.5,65.2,53.8,58.5,53.2,49.1,87,68,44,30.22,30.14,17,5,18,0.00
2017-6-19,84.0,68.1,52.2,61.9,54.7,48.4,89,67,35,30.23,30.04,9,2,10,0.00
2017-6-20,91.2,70.8,50.5,64.6,57.5,47.7,91,63,35,30.07,29.81,15,2,15,0.00
2017-6-21,87.1,75.2,63.7,67.8,62.4,56.8,79,64,47,29.94,29.85,12,3,13,0.00
2017-6-22,92.5,74.7,56.8,65.8,59.7,52.7,87,56,36,29.96,29.77,13,2,13,0.00
2017-6-23,87.4,75.7,63.9,71.2,62.7,52.3,94,66,41,29.92,29.75,21,4,23,0.84
2017-6-24,86.4,73.5,60.6,65.8,62.2,56.7,88,66,47,29.99,29.79,21,5,22,0.00
2017-6-25,83.5,73.2,63.3,64.2,60.7,55.6,92,75,42,29.89,29.81,17,3,19,0.18
2017-6-26,84.4,73.6,62.8,65.3,61.3,57.6,92,69,43,29.89,29.77,17,4,17,0.00
2017-6-27,84.6,74.8,65.1,66.6,62.6,58.8,86,69,47,29.80,29.64,19,3,19,0.00
2017-6-28,90.3,76.8,63.3,65.8,62.3,56.3,96,63,41,29.64,29.36,26,6,29,0.00
2017-6-29,76.6,70.4,64.2,60.6,57.0,52.3,82,62,44,29.57,29.27,28,6,29,0.02
2017-6-30,78.6,69.5,60.4,59.9,53.9,49.1,85,62,39,29.75,29.56,24,6,24,0.05
2017-7-1,77.2,67.2,57.2,57.7,53.5,49.1,87,65,39,29.87,29.70,24,7,26,0.00
2017-7-2,71.4,61.7,52.2,61.5,55.9,46.6,92,79,67,30.01,29.87,17,4,18,0.05
2017-7-3,77.5,68.9,60.3,58.8,53.7,44.8,90,63,33,30.11,30.01,24,5,24,0.00
2017-7-4,79.2,68.0,57.0,59.9,55.1,52.0,84,65,45,30.10,30.03,18,3,18,0.00
2017-7-5,88.9,73.4,57.9,60.3,55.7,50.2,89,56,32,30.10,29.88,12,2,14,0.01
2017-7-6,88.0,72.9,57.9,69.6,59.6,54.1,88,68,39,30.08,29.96,10,2,11,0.06
2017-7-7,86.4,74.8,63.1,64.6,59.5,54.3,82,61,36,30.04,29.83,20,3,20,0.00
2017-7-8,87.3,75.1,62.8,67.3,60.7,55.8,83,62,38,29.93,29.85,22,4,22,0.00
2017-7-9,86.2,75.6,65.7,68.0,64.0,60.4,88,71,50,29.93,29.83,15,2,16,0.31
2017-7-10,85.1,74.3,63.7,74.1,66.4,61.7,94,82,53,29.87,29.68,25,3,31,0.66
2017-7-11,83.3,74.1,64.8,67.8,60.6,51.1,94,71,38,29.89,29.73,25,5,25,0.05
2017-7-12,86.2,74.9,63.9,64.9,59.6,55.0,93,66,38,29.92,29.73,17,2,19,0.20
2017-7-13,75.7,66.8,57.9,60.8,50.1,42.1,89,58,33,30.08,29.82,24,6,24,0.01
2017-7-14,73.8,62.2,50.7,54.0,48.6,44.4,83,60,40,30.09,29.89,15,2,15,0.00
2017-7-15,70.2,61.8,53.4,57.2,53.4,50.0,93,81,54,30.18,29.94,19,5,19,0.13
2017-7-16,75.0,63.0,51.1,55.8,52.0,47.8,97,69,42,30.24,30.13,13,4,14,0.02
2017-7-17,83.5,70.4,57.4,60.4,53.7,50.2,81,59,36,30.17,30.03,15,2,15,0.00
2017-7-18,86.5,71.8,57.0,62.2,56.5,53.1,88,59,34,30.11,29.94,24,3,24,0.00
2017-7-19,89.8,77.4,64.9,64.9,58.4,53.8,84,61,35,29.97,29.84,19,2,19,0.00
2017-7-20,93.0,75.7,58.6,69.3,60.9,56.8,95,67,32,29.88,29.69,32,4,33,0.05
2017-7-21,85.3,73.9,63.0,67.6,63.5,60.4,96,69,46,29.94,29.83,19,3,19,0.46
2017-7-22,87.8,75.0,62.4,67.6,62.5,58.5,88,68,46,29.90,29.83,15,3,16,0.00
2017-7-23,84.7,73.3,61.9,66.2,62.2,58.1,89,73,46,29.94,29.85,18,3,21,0.01
2017-7-24,72.9,66.6,60.4,65.1,62.5,56.5,96,90,74,29.93,29.60,19,3,21,0.89
2017-7-25,71.6,64.7,57.7,56.5,53.4,50.0,92,71,51,29.68,29.61,26,7,26,0.02
2017-7-26,64.8,60.4,55.9,58.3,53.8,49.8,95,82,70,29.72,29.61,28,6,28,0.50
2017-7-27,67.5,61.7,55.8,61.5,57.9,54.3,96,90,74,29.82,29.72,16,4,17,0.39
2017-7-28,80.2,70.4,60.6,64.4,58.5,52.3,92,73,39,29.99,29.81,25,6,25,0.00
2017-7-29,86.4,70.1,54.1,60.8,56.5,50.9,91,63,35,30.05,29.93,12,2,13,0.00
2017-7-30,91.8,78.1,64.4,70.0,63.8,58.8,84,65,43,29.94,29.81,19,3,19,0.00
2017-7-31,91.6,79.0,66.4,68.9,63.9,61.0,85,65,40,30.01,29.89,16,3,16,0.00
2017-8-1,95.4,81.8,68.5,67.8,64.3,61.7,81,55,36,30.02,29.87,31,8,31,0.00
2017-8-2,93.4,83.5,73.8,70.5,65.8,61.3,74,58,37,30.06,29.88,14,3,16,0.00
2017-8-3,100.6,85.1,69.8,67.6,63.5,58.6,77,55,26,29.99,29.78,22,3,24,0.00
2017-8-4,92.1,81.7,71.4,70.9,68.0,66.0,85,66,46,29.89,29.76,12,2,12,0.00
2017-8-5,88.3,78.9,69.6,68.9,60.6,54.1,76,55,44,29.96,29.83,13,2,13,0.00
2017-8-6,79.2,70.1,61.0,67.6,62.8,58.1,94,86,63,30.16,29.87,16,4,16,0.56
2017-8-7,78.3,67.9,57.6,59.9,56.1,51.6,92,71,41,30.18,30.04,15,3,15,0.01
2017-8-8,78.1,68.9,59.7,65.3,60.5,55.8,89,78,63,30.08,29.87,27,7,27,0.00
2017-8-9,86.4,73.3,60.3,68.9,63.3,56.1,88,69,46,30.04,29.89,19,4,20,0.00
2017-8-10,85.5,75.5,65.5,71.1,65.4,61.5,88,74,51,30.06,29.84,24,3,32,0.81
2017-8-11,72.0,64.2,57.0,64.0,57.3,54.0,91,85,73,30.02,29.83,25,8,28,0.20
2017-8-12,73.8,64.1,54.3,58.5,53.7,50.2,89,73,52,30.09,29.96,20,5,25,0.00
2017-8-13,75.9,65.4,55.0,62.1,56.8,51.3,87,76,59,30.15,30.05,15,4,18,0.00
2017-8-14,81.7,70.1,58.6,64.4,57.6,52.9,90,69,38,30.19,30.09,10,2,11,0.00
2017-8-15,85.3,69.8,54.3,62.6,57.4,51.1,90,66,40,30.15,30.02,15,3,17,0.00
2017-8-16,81.3,69.0,56.7,67.8,60.9,52.7,89,71,58,30.13,30.04,20,4,23,0.00
2017-8-17,85.5,72.1,58.6,67.1,59.8,53.2,90,72,35,30.14,29.99,11,2,11,0.00
2017-8-18,90.7,74.8,59.0,67.1,60.9,55.4,89,63,38,30.06,29.81,17,3,18,0.00
2017-8-19,78.3,69.3,60.3,61.3,59.4,57.6,91,83,51,30.11,29.83,33,5,33,0.39
2017-8-20,75.4,65.4,55.9,59.0,54.7,49.1,91,77,44,30.18,30.07,18,5,18,0.02
2017-8-21,72.3,61.7,51.3,54.1,50.8,47.8,89,73,47,30.20,30.11,18,4,18,0.00
2017-8-22,72.9,62.2,51.4,54.7,50.2,45.9,86,69,47,30.20,30.03,15,3,15,0.00
2017-8-23,73.6,61.0,48.9,55.8,48.5,45.0,87,69,40,30.13,30.02,11,2,12,0.00
2017-8-24,83.3,63.6,43.9,59.2,51.9,41.2,91,71,41,30.09,29.97,11,2,12,0.00
2017-8-25,87.4,73.4,59.4,65.8,60.8,55.2,88,66,41,30.09,29.97,14,3,15,0.00
2017-8-26,90.0,73.9,57.9,66.4,60.8,54.3,89,70,40,30.03,29.90,14,2,14,0.00
2017-8-27,88.5,76.1,63.7,66.6,62.6,58.8,88,69,43,30.02,29.86,16,4,29,0.02
2017-8-28,78.1,69.3,60.6,59.9,57.3,50.7,90,72,47,30.09,30.01,11,2,12,0.00
2017-8-29,80.1,65.1,50.5,57.9,50.0,44.2,89,65,31,30.14,29.99,10,2,10,0.00
2017-8-30,84.7,66.6,48.6,58.6,53.0,45.1,90,61,38,30.03,29.88,21,4,21,0.00
2017-8-31,86.7,73.5,60.3,65.1,58.1,50.0,83,59,40,29.94,29.78,29,5,29,0.00
2017-9-1,70.2,62.9,55.6,62.1,58.5,51.8,89,84,73,29.99,29.87,17,6,21,0.28
2017-9-2,64.8,58.7,52.7,54.5,50.7,48.0,88,77,64,30.01,29.91,12,3,12,0.00
2017-9-3,63.9,57.8,51.6,53.8,50.4,47.8,90,82,63,29.95,29.87,19,5,21,0.29
2017-9-4,69.6,58.7,48.0,55.8,48.8,45.1,91,75,48,30.11,29.95,15,4,16,0.29
2017-9-5,74.5,62.5,50.5,56.1,51.2,46.6,88,71,48,30.14,30.00,18,5,19,0.00
2017-9-6,73.9,63.7,53.4,62.8,56.9,50.2,90,82,68,30.07,29.88,17,4,19,0.00
2017-9-7,70.2,59.3,48.6,57.0,48.9,43.5,86,68,46,30.04,29.92,23,4,23,0.00
2017-9-8,75.2,58.3,41.5,53.2,46.8,38.8,91,68,40,30.04,29.78,18,4,22,0.00
2017-9-9,79.0,69.1,59.2,58.1,55.8,52.5,81,62,46,29.61,29.49,22,6,22,0.00
2017-9-10,69.4,62.2,54.9,56.8,54.0,50.4,87,77,62,29.75,29.57,13,3,14,0.02
2017-9-11,61.5,57.2,52.9,57.4,54.4,50.4,91,89,84,29.75,29.60,21,2,21,0.22
2017-9-12,61.5,57.0,52.5,54.9,51.9,48.2,91,86,69,29.95,29.71,15,3,16,0.06
2017-9-13,71.2,57.2,43.3,53.4,48.2,40.6,91,69,40,30.01,29.82,17,2,19,0.01
2017-9-14,80.8,66.7,52.5,56.8,50.6,44.1,86,71,42,29.93,29.57,29,6,30,0.03
2017-9-15,68.4,58.6,49.6,47.7,44.4,40.3,77,70,41,30.04,29.90,22,4,23,0.00
2017-9-16,59.7,55.7,52.2,54.1,49.8,46.6,91,85,77,29.94,29.82,19,3,19,0.17
2017-9-21,60.3,52.9,45.7,51.3,46.7,42.6,91,81,67,30.11,30.06,20,6,20,0.01
2017-9-22,61.5,54.5,47.5,52.7,48.7,44.4,90,83,70,30.20,30.09,14,4,15,0.00
2017-9-23,61.7,54.0,46.2,53.1,48.3,43.7,91,86,69,30.20,30.12,13,5,13,0.06
2017-9-24,60.3,54.8,49.5,53.6,49.8,46.9,91,88,78,30.19,30.13,12,2,12,0.00
2017-9-25,63.3,54.5,45.7,55.4,49.8,43.0,91,85,68,30.24,30.15,15,2,18,0.00
2017-9-26,68.4,56.9,45.7,57.2,51.1,43.0,92,84,63,30.29,30.22,12,1,12,0.01
2017-9-27,67.6,56.3,45.0,58.3,52.1,42.4,92,85,70,30.32,30.28,15,2,15,0.02
2017-9-28,68.9,57.8,46.8,54.9,50.3,43.9,91,77,50,30.38,30.31,21,4,22,0.00
2017-9-29,66.6,54.2,41.9,52.2,47.0,39.2,91,76,51,30.36,30.25,25,4,25,0.00
2017-9-30,64.2,54.7,45.3,46.8,43.2,41.2,86,68,46,30.27,30.12,27,8,28,0.00
2017-10-1,64.9,54.7,44.4,44.8,41.1,39.2,83,66,41,30.27,30.12,21,6,22,0.00
2017-10-2,65.7,53.1,40.6,45.5,41.4,37.0,87,68,42,30.27,30.07,22,4,22,0.00
2017-10-3,57.4,51.2,45.1,54.9,47.4,42.1,91,87,74,30.27,29.92,22,3,22,0.83
2017-10-4,65.5,54.4,43.7,51.8,46.8,41.2,92,80,55,30.32,30.10,16,4,16,0.01
2017-10-5,72.9,62.0,51.4,50.2,47.2,41.0,87,65,34,30.11,29.62,32,6,35,0.01
2017-10-6,56.7,50.8,45.1,46.2,42.7,39.7,85,75,58,30.04,29.84,20,5,20,0.00
2017-10-7,60.1,51.3,43.2,50.2,44.1,39.7,88,79,59,30.15,30.00,21,4,22,0.00
2017-10-8,55.4,49.2,43.5,49.5,45.4,40.1,89,85,77,30.02,29.91,22,5,23,0.16
2017-10-9,59.4,48.5,37.8,48.0,42.7,35.4,91,81,52,30.12,30.02,16,2,16,0.09
2017-10-10,63.0,53.7,44.6,51.3,46.8,41.9,91,81,62,30.14,30.06,21,3,21,0.05
2017-10-11,69.6,58.5,47.5,54.7,50.0,44.4,90,77,51,30.17,30.09,19,3,21,0.00
2017-10-12,70.3,55.9,41.5,56.3,49.2,38.8,91,77,52,30.27,30.13,18,4,19,0.00
2017-10-13,69.1,58.4,47.7,53.2,48.8,44.6,90,78,53,30.35,30.26,21,4,22,0.00
2017-10-14,69.1,56.9,44.8,54.9,47.7,42.1,90,80,55,30.41,30.34,12,3,12,0.00
2017-10-15,95.2,69.1,43.0,57.9,47.8,40.3,92,81,29,30.43,30.31,9,1,9,0.02
2017-10-16,69.8,56.9,44.2,57.4,49.4,41.9,94,86,63,30.38,30.29,8,1,11,0.01
2017-10-17,68.4,55.8,43.3,57.2,49.1,41.5,94,85,64,30.35,30.12,13,1,13,0.01
2017-10-18,61.3,53.2,45.1,54.9,49.7,43.2,94,88,78,30.12,29.96,11,2,12,0.01
2017-10-19,58.6,49.8,41.0,52.5,47.6,39.0,94,91,79,30.07,30.00,7,1,8,0.01
2017-10-20,52.5,46.7,40.8,50.2,45.5,39.2,95,93,90,30.09,30.05,8,0,8,0.01
2017-10-21,60.4,53.7,47.1,54.3,48.8,44.8,94,91,81,30.10,30.01,12,1,12,0.04
2017-10-22,52.0,48.5,45.0,50.2,46.8,42.8,95,91,85,30.06,29.96,21,3,21,0.06
2017-10-23,48.7,47.4,46.2,44.8,42.8,40.6,89,84,80,30.12,29.92,19,6,20,0.20
2017-10-24,56.1,50.4,45.1,47.8,44.7,42.3,91,81,72,30.32,30.12,18,5,18,0.00
2017-10-25,62.2,51.8,41.5,50.7,44.6,39.4,93,82,56,30.32,30.21,11,2,11,0.00
2017-10-26,66.4,56.0,46.2,54.5,47.9,43.2,93,82,64,30.32,30.17,15,4,15,0.00
2017-10-27,53.4,49.3,45.3,50.7,44.8,41.4,94,88,76,30.18,29.93,23,4,24,0.01
2017-10-28,51.1,48.5,46.0,43.0,39.7,36.3,81,72,61,30.19,29.83,26,6,26,0.00
2017-10-29,54.5,47.3,40.3,46.0,38.2,32.7,86,72,50,29.87,29.27,38,11,47,0.22
2017-10-30,47.5,41.8,36.1,37.9,33.2,29.8,88,76,61,30.29,29.87,27,5,27,0.06
2017-10-31,49.8,41.9,34.3,39.4,35.4,29.3,89,79,65,30.34,30.28,14,2,16,0.01
2017-11-1,49.5,40.3,31.1,40.6,34.0,29.1,93,83,65,30.34,30.18,17,3,17,0.00
2017-11-2,60.4,47.3,34.2,45.9,39.9,31.8,93,77,53,30.19,29.88,19,3,20,0.00
2017-11-3,57.9,46.1,34.5,45.7,40.2,32.2,93,79,57,30.15,29.96,13,2,14,0.00
2017-11-4,57.0,46.0,35.1,45.1,39.2,32.5,92,81,60,30.12,29.99,20,4,20,0.01
2017-11-5,55.2,48.7,42.1,47.5,41.8,38.1,88,83,74,29.99,29.74,22,6,23,0.00
2017-11-6,46.4,44.5,42.6,41.2,39.9,39.2,91,86,77,30.21,29.91,20,7,25,0.00
2017-11-7,52.3,46.2,40.1,43.5,40.6,38.1,93,85,68,30.21,30.08,12,3,12,0.00
2017-11-8,47.1,45.2,43.2,42.3,41.0,39.0,93,85,74,30.15,30.05,13,2,14,0.07
2017-11-9,47.5,44.0,40.6,42.3,40.4,37.9,93,89,80,30.26,30.15,9,2,10,0.00
2017-11-10,46.9,44.6,42.3,40.5,37.8,34.9,91,76,68,30.26,29.95,25,4,27,0.01
2017-11-11,48.0,40.7,33.6,40.1,36.7,30.4,92,77,62,30.02,29.74,26,5,26,0.10
2017-11-12,44.8,42.4,40.1,41.7,38.1,34.0,91,84,69,29.82,29.44,27,4,27,0.09
2017-11-13,43.7,38.3,33.1,37.0,32.4,28.6,86,77,71,30.12,29.51,24,7,27,0.00
2017-11-14,46.2,36.9,27.9,34.3,29.7,24.4,88,77,56,30.40,30.12,15,4,16,0.00
2017-11-15,44.6,34.5,24.6,34.9,28.9,22.3,92,85,66,30.45,30.37,13,3,13,0.01
2017-11-16,40.6,32.3,24.1,34.2,30.0,21.7,94,86,74,30.42,30.27,12,2,13,0.00
2017-11-17,40.5,38.2,36.0,34.9,32.3,30.0,91,81,73,30.32,30.27,20,6,20,0.05
2017-11-18,43.2,39.8,36.7,37.4,35.2,33.4,92,85,73,30.27,30.01,16,5,16,0.00
2017-11-19,41.7,39.3,36.9,35.4,32.1,29.5,85,76,67,30.01,29.92,27,6,27,0.02
2017-11-20,44.2,40.2,36.3,35.4,32.8,30.4,84,77,68,30.12,29.99,25,6,25,0.00
2017-11-21,46.0,40.8,35.6,42.8,38.2,31.8,92,89,83,30.09,29.94,15,4,16,0.28
2017-11-22,58.6,45.7,32.7,43.7,38.8,29.8,93,76,52,30.00,29.91,18,4,18,0.06
2017-11-23,39.7,35.2,30.7,37.0,34.0,28.4,94,92,88,30.15,29.96,18,2,19,0.01
2017-11-24,40.5,38.4,36.3,37.9,36.2,34.2,94,92,90,30.16,30.07,18,5,19,0.00
2017-11-25,45.3,41.5,37.8,42.4,37.6,36.0,94,90,82,30.08,29.73,21,6,22,0.01
2017-11-26,41.9,36.4,31.1,37.2,31.6,26.4,92,80,65,30.29,29.98,18,4,18,0.02
2017-11-27,43.7,34.8,26.1,32.4,28.2,23.0,90,80,57,30.33,30.13,19,3,20,0.00
2017-11-28,44.2,36.0,27.9,32.4,27.7,22.8,85,77,56,30.13,29.83,14,2,15,0.01
2017-11-29,36.0,33.8,31.5,32.9,30.4,27.5,93,89,76,29.84,29.73,16,3,19,0.10
2017-11-30,32.5,28.4,24.3,30.4,29.3,21.7,93,92,89,29.84,29.60,16,2,16,0.21
2017-12-1,34.9,25.5,16.2,30.2,21.1,13.3,93,89,81,30.21,29.84,9,1,10,0.28
2017-12-2,30.0,23.1,16.2,25.5,20.8,13.5,93,88,82,30.36,30.21,13,4,13,0.02
2017-12-3,33.3,28.8,24.3,26.6,23.7,21.2,89,80,71,30.35,30.25,15,6,16,0.02
2017-12-4,36.7,34.0,31.3,31.1,28.6,23.9,89,82,74,30.41,30.23,23,6,24,0.13
2017-12-5,39.6,34.7,29.7,34.0,31.7,26.1,89,84,78,30.49,30.40,19,5,21,0.00
2017-12-6,42.3,36.5,30.9,33.6,31.0,27.0,86,75,67,30.49,30.42,23,6,23,0.00
2017-12-7,41.4,33.3,25.5,33.8,27.7,23.2,92,86,71,30.45,30.10,10,2,10,0.00
2017-12-8,36.9,32.3,27.7,34.0,28.7,25.7,94,91,80,30.10,29.86,17,3,17,0.08
2017-12-9,35.1,32.4,29.7,30.2,25.6,20.3,86,77,64,29.99,29.85,21,5,22,0.00
2017-12-10,35.1,28.3,21.6,26.6,22.1,16.7,84,69,52,29.99,29.38,20,4,20,0.00
2017-12-11,52.9,43.5,34.5,44.1,37.6,26.2,86,77,70,29.43,29.27,40,11,40,0.00
2017-12-12,53.2,45.1,36.9,43.3,35.5,30.2,81,72,63,30.09,29.32,33,7,33,0.00
2017-12-13,41.9,35.8,30.0,31.6,28.9,24.8,90,79,51,30.18,29.71,12,2,12,0.00
2017-12-14,46.2,38.4,30.9,34.7,29.3,25.3,90,76,55,29.71,29.54,33,5,33,0.00
2017-12-15,43.7,37.0,30.2,35.4,31.1,27.5,93,81,64,29.63,29.44,18,3,18,0.00
2017-12-16,39.0,34.4,29.8,31.8,29.5,26.2,91,84,72,30.02,29.60,8,4,9,0.00
2017-12-17,40.3,33.6,27.3,32.0,29.1,24.6,92,84,71,30.28,30.02,16,3,18,0.00
2017-12-18,34.9,28.9,22.8,27.5,24.1,19.8,90,83,73,30.46,30.28,11,4,12,0.00
2017-12-19,33.3,26.4,19.8,26.1,22.0,17.4,91,85,67,30.59,30.46,13,6,16,0.00
2017-12-20,35.2,32.0,28.8,30.6,27.9,25.9,89,87,82,30.61,30.55,12,3,13,0.01
2017-12-21,37.4,34.8,32.2,34.3,31.8,28.4,91,87,78,30.60,30.44,23,6,25,0.45
2017-12-22,44.1,40.2,36.3,39.4,36.3,33.1,90,86,79,30.51,30.43,16,6,19,0.00
2017-12-23,47.5,42.7,37.8,40.1,36.6,32.7,83,77,68,30.49,30.28,28,7,32,0.05
2017-12-24,46.6,41.9,37.2,39.6,36.7,32.5,83,77,71,30.32,30.25,30,11,33,0.00
2017-12-25,45.5,36.4,27.5,37.4,31.1,25.5,93,86,68,30.31,30.08,10,2,13,0.01
2017-12-26,32.5,30.4,28.2,30.9,28.8,26.2,94,93,92,30.08,29.82,8,2,9,0.00
2017-12-27,48.6,38.7,28.8,40.8,34.3,27.0,95,85,69,29.82,29.21,19,6,24,0.01
2017-12-28,47.8,39.7,31.5,38.5,33.2,29.3,92,81,70,29.62,29.17,24,8,31,0.48
2017-12-29,38.8,30.3,21.9,31.1,25.1,18.9,91,76,55,29.96,29.62,19,6,25,0.13
2017-12-30,35.8,30.5,25.3,32.4,26.8,20.3,93,85,79,29.96,29.86,11,2,14,0.03
2017-12-31,56.7,45.3,34.0,45.3,38.5,31.8,94,81,59,29.94,29.83,17,3,22,0.26
2018-1-1,45.9,38.8,31.6,38.5,33.1,28.2,94,86,69,29.91,29.77,14,2,18,0.00
2018-1-2,46.2,38.8,31.3,35.4,32.7,28.2,91,79,61,30.02,29.76,20,4,28,0.03